createdAt,value
2019-04-07T00:00:00.488Z,56
2019-04-07T00:00:04.079Z,57
2019-04-07T00:00:06.442Z,58
2019-04-07T00:00:11.827Z,56
2019-04-07T00:00:18.943Z,57
2019-04-07T00:00:22.398Z,56
2019-04-07T00:00:24.974Z,57
2019-04-07T00:00:27.795Z,56
2019-04-07T00:00:31.449Z,55
2019-04-07T00:00:32.564Z,54
2019-04-07T00:00:36.048Z,55
2019-04-07T00:00:37.214Z,56
2019-04-07T00:00:39.560Z,57
2019-04-07T00:00:42.615Z,56
2019-04-07T00:00:49.269Z,55
2019-04-07T00:00:51.918Z,56
2019-04-07T00:00:54.302Z,57
2019-04-07T00:00:55.422Z,58
2019-04-07T00:00:58.573Z,59
2019-04-07T00:01:04.711Z,56
2019-04-07T00:01:07.120Z,55
2019-04-07T00:01:09.070Z,54
2019-04-07T00:01:12.952Z,56
2019-04-07T00:01:15.866Z,55
2019-04-07T00:01:18.455Z,54
2019-04-07T00:01:22.055Z,56
2019-04-07T00:01:23.259Z,57
2019-04-07T00:01:27.535Z,56
2019-04-07T00:01:29.041Z,55
2019-04-07T00:01:30.577Z,56
2019-04-07T00:01:34.403Z,57
2019-04-07T00:01:35.763Z,58
2019-04-07T00:01:38.119Z,59
2019-04-07T00:01:41.162Z,56
2019-04-07T00:01:43.434Z,55
2019-04-07T00:01:45.036Z,56
2019-04-07T00:01:46.603Z,55
2019-04-07T00:01:49.050Z,54
2019-04-07T00:01:52.930Z,53
2019-04-07T00:01:55.993Z,54
2019-04-07T00:02:02.779Z,53
2019-04-07T00:02:05.304Z,54
2019-04-07T00:02:06.556Z,55
2019-04-07T00:02:08.919Z,56
2019-04-07T00:02:11.204Z,58
2019-04-07T00:02:12.362Z,56
2019-04-07T00:02:17.049Z,55
2019-04-07T00:02:18.546Z,54
2019-04-07T00:02:22.408Z,55
2019-04-07T00:02:27.081Z,53
2019-04-07T00:02:33.066Z,51
2019-04-07T00:02:37.036Z,52
2019-04-07T00:02:38.509Z,53
2019-04-07T00:02:45.506Z,52
2019-04-07T00:02:50.769Z,49
2019-04-07T00:02:53.084Z,50
2019-04-07T00:02:56.980Z,51
2019-04-07T00:02:59.252Z,50
2019-04-07T00:03:01.550Z,51
2019-04-07T00:03:02.715Z,50
2019-04-07T00:03:03.834Z,51
2019-04-07T00:03:05.195Z,52
2019-04-07T00:03:09.369Z,54
2019-04-07T00:03:10.660Z,55
2019-04-07T00:03:13.094Z,53
2019-04-07T00:03:16.212Z,54
2019-04-07T00:03:18.682Z,53
2019-04-07T00:03:23.025Z,54
2019-04-07T00:03:26.661Z,53
2019-04-07T00:03:27.820Z,54
2019-04-07T00:03:31.271Z,57
2019-04-07T00:03:34.811Z,60
2019-04-07T00:03:38.965Z,61
2019-04-07T00:03:42.551Z,62
2019-04-07T00:03:43.718Z,63
2019-04-07T00:03:46.234Z,64
2019-04-07T00:03:49.363Z,65
2019-04-07T00:03:53.245Z,63
2019-04-07T00:03:56.123Z,62
2019-04-07T00:04:00.658Z,63
2019-04-07T00:04:04.336Z,64
2019-04-07T00:04:09.273Z,63
2019-04-07T00:04:10.874Z,62
2019-04-07T00:04:13.333Z,61
2019-04-07T00:04:17.450Z,60
2019-04-07T00:04:21.646Z,57
2019-04-07T00:04:27.162Z,55
2019-04-07T00:04:33.031Z,54
2019-04-07T00:04:37.804Z,53
2019-04-07T00:04:40.213Z,55
2019-04-07T00:04:43.063Z,53
2019-04-07T00:04:46.669Z,56
2019-04-07T00:04:51.297Z,55
2019-04-07T00:04:54.856Z,57
2019-04-07T00:05:10.907Z,59
2019-04-07T00:05:17.361Z,58
2019-04-07T00:05:20.841Z,57
2019-04-07T00:05:22.112Z,58
2019-04-07T00:05:25.652Z,56
2019-04-07T00:05:30.307Z,55
2019-04-07T00:05:33.363Z,54
2019-04-07T00:05:34.620Z,52
2019-04-07T00:05:37.769Z,51
2019-04-07T00:05:38.977Z,50
2019-04-07T00:05:40.114Z,51
2019-04-07T00:05:41.511Z,50
2019-04-07T00:05:45.062Z,51
2019-04-07T00:05:47.420Z,52
2019-04-07T00:05:48.609Z,53
2019-04-07T00:05:53.801Z,54
2019-04-07T00:05:56.454Z,55
2019-04-07T00:05:57.654Z,56
2019-04-07T00:05:59.970Z,55
2019-04-07T00:06:01.099Z,54
2019-04-07T00:06:04.620Z,53
2019-04-07T00:06:06.559Z,54
2019-04-07T00:06:12.097Z,56
2019-04-07T00:06:17.052Z,54
2019-04-07T00:06:18.238Z,55
2019-04-07T00:06:21.715Z,56
2019-04-07T00:06:24.856Z,55
2019-04-07T00:06:28.232Z,54
2019-04-07T00:06:31.951Z,55
2019-04-07T00:06:37.277Z,56
2019-04-07T00:06:38.541Z,55
2019-04-07T00:06:40.058Z,56
2019-04-07T00:06:44.154Z,57
2019-04-07T00:06:47.740Z,56
2019-04-07T00:06:51.235Z,57
2019-04-07T00:06:52.351Z,56
2019-04-07T00:06:53.526Z,57
2019-04-07T00:06:57.617Z,56
2019-04-07T00:07:01.304Z,55
2019-04-07T00:07:03.649Z,53
2019-04-07T00:07:07.564Z,54
2019-04-07T00:07:09.272Z,53
2019-04-07T00:07:10.664Z,52
2019-04-07T00:07:12.046Z,53
2019-04-07T00:07:15.103Z,52
2019-04-07T00:07:18.612Z,53
2019-04-07T00:07:21.000Z,55
2019-04-07T00:07:23.347Z,56
2019-04-07T00:07:26.280Z,57
2019-04-07T00:07:28.763Z,58
2019-04-07T00:07:29.933Z,59
2019-04-07T00:07:31.042Z,58
2019-04-07T00:07:34.684Z,57
2019-04-07T00:07:37.084Z,56
2019-04-07T00:07:39.407Z,57
2019-04-07T00:07:42.391Z,58
2019-04-07T00:07:43.613Z,57
2019-04-07T00:07:46.004Z,56
2019-04-07T00:07:47.266Z,57
2019-04-07T00:07:49.688Z,58
2019-04-07T00:07:50.847Z,57
2019-04-07T00:07:51.977Z,58
2019-04-07T00:07:53.117Z,57
2019-04-07T00:07:55.597Z,56
2019-04-07T00:08:00.807Z,55
2019-04-07T00:08:03.191Z,54
2019-04-07T00:08:05.798Z,52
2019-04-07T00:08:06.983Z,51
2019-04-07T00:08:09.355Z,52
2019-04-07T00:08:13.521Z,50
2019-04-07T00:08:21.731Z,51
2019-04-07T00:08:24.035Z,49
2019-04-07T00:08:26.376Z,50
2019-04-07T00:08:27.636Z,51
2019-04-07T00:08:28.838Z,49
2019-04-07T00:08:31.287Z,48
2019-04-07T00:08:35.322Z,49
2019-04-07T00:08:37.733Z,50
2019-04-07T00:08:40.151Z,52
2019-04-07T00:08:41.343Z,53
2019-04-07T00:08:44.415Z,55
2019-04-07T00:08:47.503Z,56
2019-04-07T00:08:49.942Z,55
2019-04-07T00:08:51.065Z,56
2019-04-07T00:08:53.567Z,55
2019-04-07T00:08:55.923Z,56
2019-04-07T00:08:58.181Z,55
2019-04-07T00:08:59.282Z,54
2019-04-07T00:09:01.733Z,55
2019-04-07T00:09:04.450Z,57
2019-04-07T00:09:07.191Z,58
2019-04-07T00:09:08.355Z,57
2019-04-07T00:09:11.003Z,58
2019-04-07T00:09:13.324Z,60
2019-04-07T00:09:14.421Z,61
2019-04-07T00:09:16.723Z,60
2019-04-07T00:09:17.823Z,59
2019-04-07T00:09:20.543Z,58
2019-04-07T00:09:24.595Z,57
2019-04-07T00:09:25.895Z,56
2019-04-07T00:09:30.002Z,55
2019-04-07T00:09:32.330Z,56
2019-04-07T00:09:38.707Z,57
2019-04-07T00:09:43.706Z,58
2019-04-07T00:09:44.965Z,60
2019-04-07T00:09:49.131Z,58
2019-04-07T00:09:50.355Z,57
2019-04-07T00:09:52.596Z,58
2019-04-07T00:09:55.872Z,57
2019-04-07T00:09:58.221Z,56
2019-04-07T00:10:01.792Z,55
2019-04-07T00:10:04.200Z,56
2019-04-07T00:10:08.398Z,57
2019-04-07T00:10:14.278Z,61
2019-04-07T00:10:16.763Z,62
2019-04-07T00:10:18.056Z,61
2019-04-07T00:10:21.616Z,62
2019-04-07T00:10:23.916Z,61
2019-04-07T00:10:27.481Z,60
2019-04-07T00:10:30.412Z,59
2019-04-07T00:10:32.865Z,60
2019-04-07T00:10:36.812Z,58
2019-04-07T00:10:40.255Z,56
2019-04-07T00:10:43.752Z,57
2019-04-07T00:10:54.028Z,56
2019-04-07T00:10:55.215Z,55
2019-04-07T00:10:57.858Z,54
2019-04-07T00:11:01.430Z,53
2019-04-07T00:11:08.388Z,55
2019-04-07T00:11:12.037Z,64
2019-04-07T00:11:16.266Z,72
2019-04-07T00:11:20.073Z,76
2019-04-07T00:11:24.162Z,83
2019-04-07T00:11:27.896Z,93
2019-04-07T00:11:31.328Z,105
2019-04-07T00:11:34.795Z,121
2019-04-07T00:11:38.576Z,131
2019-04-07T00:11:43.299Z,139
2019-04-07T00:11:47.583Z,145
2019-04-07T00:11:51.078Z,142
2019-04-07T00:11:56.384Z,132
2019-04-07T00:12:01.985Z,277
2019-04-07T00:12:06.068Z,291
2019-04-07T00:12:09.615Z,301
2019-04-07T00:12:13.897Z,323
2019-04-07T00:12:17.442Z,339
2019-04-07T00:12:21.183Z,349
2019-04-07T00:12:24.606Z,355
2019-04-07T00:12:29.332Z,364
2019-04-07T00:12:33.319Z,375
2019-04-07T00:12:37.026Z,383
2019-04-07T00:12:40.472Z,390
2019-04-07T00:12:44.052Z,395
2019-04-07T00:12:47.639Z,405
2019-04-07T00:12:52.109Z,399
2019-04-07T00:12:56.224Z,398
2019-04-07T00:12:59.620Z,403
2019-04-07T00:13:03.179Z,392
2019-04-07T00:13:07.111Z,382
2019-04-07T00:13:12.355Z,372
2019-04-07T00:13:16.096Z,359
2019-04-07T00:13:19.590Z,345
2019-04-07T00:13:23.242Z,333
2019-04-07T00:13:27.172Z,319
2019-04-07T00:13:31.015Z,308
2019-04-07T00:13:34.985Z,292
2019-04-07T00:13:39.511Z,274
2019-04-07T00:13:43.552Z,268
2019-04-07T00:13:47.095Z,262
2019-04-07T00:13:51.665Z,254
2019-04-07T00:13:55.276Z,244
2019-04-07T00:13:59.071Z,235
2019-04-07T00:14:05.624Z,147
2019-04-07T00:14:09.488Z,140
2019-04-07T00:14:13.930Z,132
2019-04-07T00:14:18.074Z,123
2019-04-07T00:14:21.887Z,119
2019-04-07T00:14:26.136Z,114
2019-04-07T00:14:30.009Z,111
2019-04-07T00:14:34.179Z,113
2019-04-07T00:14:40.816Z,116
2019-04-07T00:14:44.970Z,122
2019-04-07T00:14:49.345Z,138
2019-04-07T00:14:52.832Z,151
2019-04-07T00:14:56.455Z,161
2019-04-07T00:15:00.050Z,171
2019-04-07T00:15:03.665Z,177
2019-04-07T00:15:07.157Z,176
2019-04-07T00:15:11.556Z,184
2019-04-07T00:15:15.496Z,201
2019-04-07T00:15:19.180Z,210
2019-04-07T00:15:23.218Z,219
2019-04-07T00:15:27.708Z,229
2019-04-07T00:15:31.219Z,226
2019-04-07T00:15:34.798Z,225
2019-04-07T00:15:38.985Z,228
2019-04-07T00:15:43.263Z,234
2019-04-07T00:15:47.535Z,243
2019-04-07T00:15:51.209Z,248
2019-04-07T00:15:53.596Z,245
2019-04-07T00:15:57.433Z,250
2019-04-07T00:16:00.380Z,252
2019-04-07T00:16:08.426Z,374
2019-04-07T00:16:12.177Z,390
2019-04-07T00:16:15.858Z,389
2019-04-07T00:16:20.140Z,400
2019-04-07T00:16:24.200Z,401
2019-04-07T00:16:27.788Z,389
2019-04-07T00:16:31.225Z,379
2019-04-07T00:16:35.160Z,360
2019-04-07T00:16:39.118Z,334
2019-04-07T00:16:42.686Z,305
2019-04-07T00:16:46.240Z,274
2019-04-07T00:16:49.777Z,249
2019-04-07T00:16:54.772Z,223
2019-04-07T00:16:58.294Z,191
2019-04-07T00:17:01.892Z,160
2019-04-07T00:17:05.698Z,154
2019-04-07T00:17:09.397Z,144
2019-04-07T00:17:13.805Z,135
2019-04-07T00:17:17.904Z,125
2019-04-07T00:17:21.940Z,117
2019-04-07T00:17:25.361Z,107
2019-04-07T00:17:29.840Z,98
2019-04-07T00:17:33.551Z,90
2019-04-07T00:17:37.552Z,84
2019-04-07T00:17:41.875Z,79
2019-04-07T00:17:45.616Z,78
2019-04-07T00:17:50.713Z,77
2019-04-07T00:17:54.357Z,80
2019-04-07T00:17:59.219Z,91
2019-04-07T00:18:03.525Z,100
2019-04-07T00:18:11.743Z,425
2019-04-07T00:18:15.726Z,478
2019-04-07T00:18:19.216Z,477
2019-04-07T00:18:23.416Z,527
2019-04-07T00:18:27.152Z,552
2019-04-07T00:18:30.957Z,567
2019-04-07T00:18:34.558Z,573
2019-04-07T00:18:38.834Z,568
2019-04-07T00:18:43.158Z,564
2019-04-07T00:18:47.019Z,554
2019-04-07T00:18:50.785Z,542
2019-04-07T00:18:54.640Z,517
2019-04-07T00:18:58.504Z,485
2019-04-07T00:19:02.829Z,453
2019-04-07T00:19:06.693Z,456
2019-04-07T00:19:10.228Z,466
2019-04-07T00:19:13.838Z,473
2019-04-07T00:19:18.455Z,481
2019-04-07T00:19:20.896Z,470
2019-04-07T00:19:24.482Z,492
2019-04-07T00:19:28.380Z,463
2019-04-07T00:19:32.253Z,418
2019-04-07T00:19:36.144Z,402
2019-04-07T00:19:42.548Z,398
2019-04-07T00:19:46.134Z,378
2019-04-07T00:19:50.310Z,365
2019-04-07T00:19:54.745Z,332
2019-04-07T00:19:58.240Z,295
2019-04-07T00:20:02.408Z,243
2019-04-07T00:20:07.267Z,207
2019-04-07T00:20:13.804Z,567
2019-04-07T00:20:17.357Z,617
2019-04-07T00:20:21.042Z,655
2019-04-07T00:20:25.325Z,677
2019-04-07T00:20:29.509Z,698
2019-04-07T00:20:35.510Z,682
2019-04-07T00:20:40.233Z,665
2019-04-07T00:20:45.048Z,656
2019-04-07T00:20:48.527Z,644
2019-04-07T00:20:51.975Z,650
2019-04-07T00:20:55.443Z,659
2019-04-07T00:20:57.812Z,672
2019-04-07T00:21:02.608Z,707
2019-04-07T00:21:06.296Z,733
2019-04-07T00:21:10.002Z,755
2019-04-07T00:21:13.722Z,769
2019-04-07T00:21:20.765Z,742
2019-04-07T00:21:24.426Z,722
2019-04-07T00:21:28.044Z,682
2019-04-07T00:21:31.588Z,635
2019-04-07T00:21:35.524Z,594
2019-04-07T00:21:39.596Z,547
2019-04-07T00:21:43.530Z,505
2019-04-07T00:21:47.052Z,467
2019-04-07T00:21:51.277Z,436
2019-04-07T00:21:55.704Z,403
2019-04-07T00:22:00.856Z,392
2019-04-07T00:22:04.444Z,373
2019-04-07T00:22:08.056Z,365
2019-04-07T00:22:15.661Z,478
2019-04-07T00:22:19.918Z,457
2019-04-07T00:22:23.466Z,430
2019-04-07T00:22:27.107Z,413
2019-04-07T00:22:31.650Z,392
2019-04-07T00:22:36.776Z,365
2019-04-07T00:22:40.628Z,335
2019-04-07T00:22:45.342Z,293
2019-04-07T00:22:48.945Z,244
2019-04-07T00:22:52.718Z,209
2019-04-07T00:22:56.441Z,177
2019-04-07T00:23:00.977Z,159
2019-04-07T00:23:04.529Z,148
2019-04-07T00:23:08.015Z,137
2019-04-07T00:23:11.980Z,138
2019-04-07T00:23:16.248Z,119
2019-04-07T00:23:20.034Z,105
2019-04-07T00:23:23.851Z,93
2019-04-07T00:23:27.303Z,84
2019-04-07T00:23:30.810Z,79
2019-04-07T00:23:34.712Z,77
2019-04-07T00:23:38.212Z,76
2019-04-07T00:23:44.175Z,78
2019-04-07T00:23:47.852Z,97
2019-04-07T00:23:51.920Z,122
2019-04-07T00:23:56.124Z,150
2019-04-07T00:24:03.518Z,178
2019-04-07T00:24:07.171Z,200
2019-04-07T00:24:10.647Z,220
2019-04-07T00:24:18.182Z,188
2019-04-07T00:24:23.034Z,184
2019-04-07T00:24:27.060Z,182
2019-04-07T00:24:30.756Z,177
2019-04-07T00:24:33.235Z,175
2019-04-07T00:24:36.829Z,180
2019-04-07T00:24:44.083Z,191
2019-04-07T00:24:47.969Z,206
2019-04-07T00:24:51.585Z,213
2019-04-07T00:24:55.595Z,214
2019-04-07T00:24:59.590Z,223
2019-04-07T00:25:04.022Z,228
2019-04-07T00:25:07.668Z,236
2019-04-07T00:25:11.958Z,243
2019-04-07T00:25:15.439Z,252
2019-04-07T00:25:19.312Z,257
2019-04-07T00:25:23.830Z,262
2019-04-07T00:25:26.268Z,261
2019-04-07T00:25:30.011Z,263
2019-04-07T00:25:33.365Z,273
2019-04-07T00:25:37.438Z,276
2019-04-07T00:25:41.446Z,291
2019-04-07T00:25:45.528Z,303
2019-04-07T00:25:49.121Z,315
2019-04-07T00:25:54.365Z,311
2019-04-07T00:25:57.968Z,303
2019-04-07T00:26:02.140Z,294
2019-04-07T00:26:06.429Z,289
2019-04-07T00:26:09.969Z,281
2019-04-07T00:26:13.920Z,272
2019-04-07T00:26:21.622Z,69
2019-04-07T00:26:30.281Z,68
2019-04-07T00:26:32.602Z,69
2019-04-07T00:26:35.987Z,68
2019-04-07T00:26:39.506Z,69
2019-04-07T00:26:41.963Z,68
2019-04-07T00:26:47.475Z,67
2019-04-07T00:26:55.062Z,68
2019-04-07T00:27:02.607Z,67
2019-04-07T00:27:06.969Z,68
2019-04-07T00:27:10.506Z,69
2019-04-07T00:27:13.087Z,68
2019-04-07T00:27:15.658Z,70
2019-04-07T00:27:19.153Z,69
2019-04-07T00:27:28.052Z,68
2019-04-07T00:27:31.902Z,69
2019-04-07T00:27:34.551Z,68
2019-04-07T00:27:37.196Z,67
2019-04-07T00:27:40.456Z,68
2019-04-07T00:27:49.214Z,67
2019-04-07T00:27:57.549Z,66
2019-04-07T00:28:01.171Z,67
2019-04-07T00:28:05.461Z,65
2019-04-07T00:28:06.728Z,64
2019-04-07T00:28:10.147Z,63
2019-04-07T00:28:15.418Z,64
2019-04-07T00:28:18.372Z,63
2019-04-07T00:28:23.540Z,71
2019-04-07T00:28:27.524Z,70
2019-04-07T00:28:31.321Z,68
2019-04-07T00:28:33.796Z,66
2019-04-07T00:28:38.036Z,65
2019-04-07T00:28:40.822Z,66
2019-04-07T00:28:42.108Z,65
2019-04-07T00:28:45.400Z,63
2019-04-07T00:28:47.780Z,62
2019-04-07T00:28:51.828Z,75
2019-04-07T00:28:55.569Z,79
2019-04-07T00:28:59.180Z,85
2019-04-07T00:29:03.222Z,109
2019-04-07T00:29:07.123Z,129
2019-04-07T00:29:11.088Z,139
2019-04-07T00:29:14.529Z,145
2019-04-07T00:29:18.658Z,148
2019-04-07T00:29:22.892Z,158
2019-04-07T00:29:26.549Z,172
2019-04-07T00:29:30.072Z,170
2019-04-07T00:29:33.609Z,191
2019-04-07T00:29:37.092Z,212
2019-04-07T00:29:44.159Z,208
2019-04-07T00:29:48.639Z,215
2019-04-07T00:29:52.179Z,237
2019-04-07T00:29:55.570Z,259
2019-04-07T00:29:59.883Z,283
2019-04-07T00:30:03.923Z,301
2019-04-07T00:30:08.921Z,315
2019-04-07T00:30:14.291Z,326
2019-04-07T00:30:18.989Z,327
2019-04-07T00:30:25.788Z,290
2019-04-07T00:30:29.345Z,302
2019-04-07T00:30:32.885Z,308
2019-04-07T00:30:36.446Z,306
2019-04-07T00:30:38.741Z,302
2019-04-07T00:30:42.592Z,307
2019-04-07T00:30:46.502Z,308
2019-04-07T00:30:50.231Z,328
2019-04-07T00:30:53.768Z,341
2019-04-07T00:30:57.422Z,353
2019-04-07T00:31:00.998Z,356
2019-04-07T00:31:05.459Z,355
2019-04-07T00:31:09.643Z,353
2019-04-07T00:31:13.695Z,349
2019-04-07T00:31:15.930Z,350
2019-04-07T00:31:19.420Z,347
2019-04-07T00:31:24.218Z,355
2019-04-07T00:31:27.921Z,371
2019-04-07T00:31:31.440Z,388
2019-04-07T00:31:35.210Z,418
2019-04-07T00:31:38.687Z,450
2019-04-07T00:31:43.104Z,478
2019-04-07T00:31:47.215Z,495
2019-04-07T00:31:51.314Z,494
2019-04-07T00:31:54.852Z,502
2019-04-07T00:31:57.480Z,501
2019-04-07T00:32:01.308Z,497
2019-04-07T00:32:04.950Z,467
2019-04-07T00:32:08.610Z,430
2019-04-07T00:32:12.503Z,392
2019-04-07T00:32:16.454Z,346
2019-04-07T00:32:20.016Z,302
2019-04-07T00:32:23.624Z,267
2019-04-07T00:32:28.546Z,120
2019-04-07T00:32:31.981Z,112
2019-04-07T00:32:36.742Z,104
2019-04-07T00:32:40.254Z,99
2019-04-07T00:32:44.241Z,92
2019-04-07T00:32:48.046Z,88
2019-04-07T00:32:52.015Z,81
2019-04-07T00:32:55.990Z,77
2019-04-07T00:32:59.662Z,74
2019-04-07T00:33:03.592Z,72
2019-04-07T00:33:07.555Z,70
2019-04-07T00:33:11.329Z,68
2019-04-07T00:33:16.084Z,66
2019-04-07T00:33:17.174Z,65
2019-04-07T00:33:20.753Z,63
2019-04-07T00:33:23.225Z,62
2019-04-07T00:33:25.617Z,63
2019-04-07T00:33:27.311Z,62
2019-04-07T00:33:32.293Z,64
2019-04-07T00:33:33.626Z,63
2019-04-07T00:33:34.757Z,64
2019-04-07T00:33:38.233Z,66
2019-04-07T00:33:41.664Z,67
2019-04-07T00:33:45.388Z,69
2019-04-07T00:33:48.943Z,73
2019-04-07T00:33:53.144Z,78
2019-04-07T00:33:57.003Z,87
2019-04-07T00:34:00.602Z,96
2019-04-07T00:34:05.249Z,106
2019-04-07T00:34:11.866Z,113
2019-04-07T00:34:15.556Z,116
2019-04-07T00:34:19.141Z,117
2019-04-07T00:34:25.020Z,115
2019-04-07T00:34:31.197Z,147
2019-04-07T00:34:34.784Z,145
2019-04-07T00:34:38.200Z,143
2019-04-07T00:34:42.667Z,141
2019-04-07T00:34:49.330Z,137
2019-04-07T00:34:53.049Z,130
2019-04-07T00:34:56.876Z,122
2019-04-07T00:35:01.169Z,114
2019-04-07T00:35:05.503Z,109
2019-04-07T00:35:09.038Z,100
2019-04-07T00:35:33.256Z,92
2019-04-07T00:35:37.778Z,86
2019-04-07T00:35:41.367Z,82
2019-04-07T00:35:44.860Z,80
2019-04-07T00:35:48.318Z,79
2019-04-07T00:35:52.086Z,77
2019-04-07T00:35:58.198Z,78
2019-04-07T00:36:06.447Z,80
2019-04-07T00:36:09.393Z,82
2019-04-07T00:36:13.088Z,98
2019-04-07T00:36:16.944Z,116
2019-04-07T00:36:20.559Z,138
2019-04-07T00:36:24.193Z,161
2019-04-07T00:36:27.902Z,198
2019-04-07T00:36:31.353Z,227
2019-04-07T00:36:37.785Z,293
2019-04-07T00:36:42.014Z,285
2019-04-07T00:36:45.981Z,287
2019-04-07T00:36:49.452Z,291
2019-04-07T00:36:53.662Z,308
2019-04-07T00:36:57.896Z,338
2019-04-07T00:37:01.550Z,376
2019-04-07T00:37:05.551Z,406
2019-04-07T00:37:09.765Z,439
2019-04-07T00:37:13.960Z,473
2019-04-07T00:37:18.371Z,472
2019-04-07T00:37:21.909Z,504
2019-04-07T00:37:26.183Z,506
2019-04-07T00:37:30.605Z,544
2019-04-07T00:37:35.192Z,540
2019-04-07T00:37:38.756Z,532
2019-04-07T00:37:43.005Z,523
2019-04-07T00:37:46.733Z,501
2019-04-07T00:37:50.615Z,464
2019-04-07T00:37:54.255Z,437
2019-04-07T00:37:58.547Z,401
2019-04-07T00:38:02.234Z,350
2019-04-07T00:38:06.093Z,297
2019-04-07T00:38:09.757Z,236
2019-04-07T00:38:13.141Z,208
2019-04-07T00:38:17.728Z,189
2019-04-07T00:38:21.794Z,163
2019-04-07T00:38:25.554Z,162
2019-04-07T00:38:29.643Z,136
2019-04-07T00:38:33.198Z,113
2019-04-07T00:38:38.452Z,105
2019-04-07T00:38:41.942Z,100
2019-04-07T00:38:46.288Z,94
2019-04-07T00:38:50.401Z,93
2019-04-07T00:38:53.960Z,89
2019-04-07T00:38:59.651Z,86
2019-04-07T00:39:04.231Z,84
2019-04-07T00:39:08.187Z,81
2019-04-07T00:39:11.930Z,78
2019-04-07T00:39:15.993Z,76
2019-04-07T00:39:20.823Z,75
2019-04-07T00:39:24.612Z,74
2019-04-07T00:39:28.282Z,73
2019-04-07T00:39:34.810Z,72
2019-04-07T00:39:37.657Z,73
2019-04-07T00:39:41.361Z,74
2019-04-07T00:39:45.084Z,75
2019-04-07T00:39:53.224Z,74
2019-04-07T00:39:56.728Z,73
2019-04-07T00:40:00.229Z,71
2019-04-07T00:40:03.397Z,70
2019-04-07T00:40:06.993Z,68
2019-04-07T00:40:11.028Z,66
2019-04-07T00:40:14.466Z,65
2019-04-07T00:40:15.667Z,64
2019-04-07T00:40:19.781Z,62
2019-04-07T00:40:22.396Z,63
2019-04-07T00:40:26.479Z,62
2019-04-07T00:40:30.774Z,63
2019-04-07T00:40:35.079Z,62
2019-04-07T00:40:40.326Z,167
2019-04-07T00:40:44.106Z,169
2019-04-07T00:40:49.449Z,170
2019-04-07T00:40:52.370Z,171
2019-04-07T00:40:55.552Z,172
2019-04-07T00:40:59.218Z,161
2019-04-07T00:41:02.962Z,152
2019-04-07T00:41:07.093Z,139
2019-04-07T00:41:12.174Z,125
2019-04-07T00:41:15.869Z,114
2019-04-07T00:41:19.961Z,102
2019-04-07T00:41:23.580Z,91
2019-04-07T00:41:27.652Z,79
2019-04-07T00:41:31.274Z,74
2019-04-07T00:41:35.357Z,68
2019-04-07T00:41:40.268Z,69
2019-04-07T00:41:48.938Z,67
2019-04-07T00:41:50.679Z,66
2019-04-07T00:41:53.030Z,67
2019-04-07T00:41:56.597Z,66
2019-04-07T00:42:00.715Z,65
2019-04-07T00:42:04.238Z,66
2019-04-07T00:42:08.456Z,64
2019-04-07T00:42:10.752Z,65
2019-04-07T00:42:14.906Z,67
2019-04-07T00:42:18.427Z,69
2019-04-07T00:42:21.014Z,70
2019-04-07T00:42:23.782Z,69
2019-04-07T00:42:27.498Z,68
2019-04-07T00:42:30.533Z,67
2019-04-07T00:42:32.917Z,66
2019-04-07T00:42:36.353Z,65
2019-04-07T00:42:42.870Z,235
2019-04-07T00:42:46.719Z,219
2019-04-07T00:42:50.421Z,204
2019-04-07T00:42:54.768Z,188
2019-04-07T00:42:59.900Z,171
2019-04-07T00:43:03.419Z,155
2019-04-07T00:43:07.938Z,152
2019-04-07T00:43:12.340Z,147
2019-04-07T00:43:16.482Z,140
2019-04-07T00:43:20.030Z,134
2019-04-07T00:43:24.151Z,128
2019-04-07T00:43:27.701Z,122
2019-04-07T00:43:30.589Z,120
2019-04-07T00:43:33.176Z,122
2019-04-07T00:43:37.987Z,121
2019-04-07T00:43:41.939Z,124
2019-04-07T00:43:46.026Z,126
2019-04-07T00:43:49.673Z,129
2019-04-07T00:43:53.029Z,128
2019-04-07T00:43:55.241Z,127
2019-04-07T00:43:59.341Z,130
2019-04-07T00:44:03.951Z,131
2019-04-07T00:44:07.449Z,130
2019-04-07T00:44:11.422Z,125
2019-04-07T00:44:14.907Z,121
2019-04-07T00:44:22.442Z,117
2019-04-07T00:44:26.046Z,112
2019-04-07T00:44:30.306Z,107
2019-04-07T00:44:35.584Z,101
2019-04-07T00:44:39.128Z,98
2019-04-07T00:44:45.337Z,61
2019-04-07T00:44:48.131Z,62
2019-04-07T00:44:52.115Z,63
2019-04-07T00:44:58.679Z,66
2019-04-07T00:45:02.968Z,69
2019-04-07T00:45:07.409Z,70
2019-04-07T00:45:11.160Z,74
2019-04-07T00:45:15.318Z,78
2019-04-07T00:45:19.096Z,85
2019-04-07T00:45:23.153Z,90
2019-04-07T00:45:26.724Z,94
2019-04-07T00:45:30.704Z,96
2019-04-07T00:45:35.291Z,94
2019-04-07T00:45:39.427Z,92
2019-04-07T00:45:43.201Z,89
2019-04-07T00:45:47.234Z,86
2019-04-07T00:45:52.473Z,79
2019-04-07T00:45:55.995Z,75
2019-04-07T00:45:59.663Z,71
2019-04-07T00:46:03.770Z,68
2019-04-07T00:46:07.688Z,63
2019-04-07T00:46:11.513Z,60
2019-04-07T00:46:15.232Z,59
2019-04-07T00:46:19.187Z,58
2019-04-07T00:46:23.359Z,57
2019-04-07T00:46:26.892Z,56
2019-04-07T00:46:30.575Z,57
2019-04-07T00:46:34.698Z,56
2019-04-07T00:46:38.578Z,57
2019-04-07T00:46:42.272Z,61
2019-04-07T00:46:45.637Z,62
2019-04-07T00:46:49.949Z,64
2019-04-07T00:46:54.040Z,70
2019-04-07T00:46:57.719Z,73
2019-04-07T00:47:01.425Z,74
2019-04-07T00:47:08.565Z,75
2019-04-07T00:47:13.031Z,76
2019-04-07T00:47:18.871Z,75
2019-04-07T00:47:26.069Z,72
2019-04-07T00:47:29.787Z,68
2019-04-07T00:47:33.944Z,65
2019-04-07T00:47:38.145Z,63
2019-04-07T00:47:41.791Z,61
2019-04-07T00:47:44.139Z,60
2019-04-07T00:47:46.442Z,61
2019-04-07T00:47:49.290Z,60
2019-04-07T00:47:50.537Z,59
2019-04-07T00:47:54.302Z,58
2019-04-07T00:47:55.907Z,59
2019-04-07T00:47:59.534Z,61
2019-04-07T00:48:03.081Z,66
2019-04-07T00:48:07.026Z,70
2019-04-07T00:48:12.265Z,71
2019-04-07T00:48:15.809Z,73
2019-04-07T00:48:19.307Z,75
2019-04-07T00:48:25.977Z,76
2019-04-07T00:48:27.490Z,77
2019-04-07T00:48:29.960Z,76
2019-04-07T00:48:33.444Z,73
2019-04-07T00:48:37.022Z,70
2019-04-07T00:48:40.980Z,67
2019-04-07T00:48:48.718Z,57
2019-04-07T00:48:52.932Z,59
2019-04-07T00:48:55.401Z,61
2019-04-07T00:49:00.586Z,63
2019-04-07T00:49:04.092Z,65
2019-04-07T00:49:05.267Z,66
2019-04-07T00:49:07.596Z,67
2019-04-07T00:49:13.222Z,68
2019-04-07T00:49:14.867Z,69
2019-04-07T00:49:17.161Z,68
2019-04-07T00:49:20.777Z,66
2019-04-07T00:49:23.110Z,65
2019-04-07T00:49:27.157Z,64
2019-04-07T00:49:29.688Z,63
2019-04-07T00:49:33.517Z,62
2019-04-07T00:49:36.060Z,60
2019-04-07T00:49:40.146Z,59
2019-04-07T00:49:42.429Z,58
2019-04-07T00:49:45.069Z,57
2019-04-07T00:49:50.152Z,56
2019-04-07T00:49:53.875Z,54
2019-04-07T00:49:57.886Z,52
2019-04-07T00:50:03.008Z,54
2019-04-07T00:50:08.914Z,52
2019-04-07T00:50:11.953Z,51
2019-04-07T00:50:15.455Z,52
2019-04-07T00:50:22.021Z,51
2019-04-07T00:50:24.393Z,49
2019-04-07T00:50:26.865Z,50
2019-04-07T00:50:35.929Z,51
2019-04-07T00:50:37.153Z,50
2019-04-07T00:50:38.379Z,52
2019-04-07T00:50:40.701Z,50
2019-04-07T00:50:46.051Z,49
2019-04-07T00:50:50.328Z,48
2019-04-07T00:50:53.956Z,49
2019-04-07T00:50:56.506Z,47
2019-04-07T00:51:00.467Z,46
2019-04-07T00:51:06.623Z,47
2019-04-07T00:51:08.999Z,48
2019-04-07T00:51:10.235Z,49
2019-04-07T00:51:11.347Z,48
2019-04-07T00:51:13.651Z,47
2019-04-07T00:51:16.608Z,48
2019-04-07T00:51:19.150Z,49
2019-04-07T00:51:22.185Z,50
2019-04-07T00:51:26.951Z,49
2019-04-07T00:51:28.287Z,48
2019-04-07T00:51:29.447Z,49
2019-04-07T00:51:33.479Z,48
2019-04-07T00:51:36.010Z,49
2019-04-07T00:51:39.907Z,50
2019-04-07T00:51:41.082Z,51
2019-04-07T00:51:43.660Z,50
2019-04-07T00:51:46.414Z,49
2019-04-07T00:51:49.805Z,50
2019-04-07T00:51:51.357Z,49
2019-04-07T00:51:56.389Z,48
2019-04-07T00:51:59.784Z,49
2019-04-07T00:52:00.976Z,48
2019-04-07T00:52:02.676Z,49
2019-04-07T00:52:03.982Z,48
2019-04-07T00:52:07.397Z,47
2019-04-07T00:52:10.968Z,49
2019-04-07T00:52:14.508Z,53
2019-04-07T00:52:18.495Z,57
2019-04-07T00:52:22.164Z,63
2019-04-07T00:52:26.050Z,67